Palestine, Ohio
Current Conditions -  °F | °C
As of 12:15 PM on Thursday 27 Nov 2014 (Local Time) from KVES Reporting Station
Overcast Overcast  
Wind Chill: 22°   Ceiling: 2600
Heat Index: 32°   Visibility: 10mi
Dew Point: 27°   Wind: 14mph
Humidity: 80%   Direction: 290°WNW
Pressure: 30.23"   Gusts: 18mph
Location:  40.05°N, 84.74°W
Report Text: KVES 271715Z AUTO 29012G16KT 10SM OVC026 00/M03 A3023 RMK AO2
Loading
Personal Weather Stations






























Interactive Weather Map New forecast layout! Learn more

10-Day Weather Forecast

Advertisements
Track Severe Weather on mobile